Time;durP1;ratioP1;P1;durP2;ratioP2;P2;SDS_P1;SDS_P2;PMS_P1;PMS_P2;Temp;Humidity;BMP_temperature;BMP_pressure;BME280_temperature;BME280_humidity;BME280_pressure;Samples;Min_cycle;Max_cycle;Signal;HPM_P1;HPM_P2
2021/10/24 00:02:19;;;;;;;10.80;4.28;;;;;;;;;;5018068;28;20041;-63
2021/10/24 00:04:45;;;;;;;14.18;4.88;;;;;;;;;;5015204;28;20481;-63
2021/10/24 00:07:11;;;;;;;11.55;4.40;;;;;;;;;;5013891;28;20120;-63
2021/10/24 00:09:37;;;;;;;15.60;4.57;;;;;;;;;;5013574;28;20065;-63
2021/10/24 00:12:04;;;;;;;17.40;4.53;;;;;;;;;;5011804;28;20022;-63
2021/10/24 00:14:29;;;;;;;8.48;3.90;;;;;;;;;;5007974;28;20048;-63
2021/10/24 00:16:55;;;;;;;17.50;5.95;;;;;;;;;;5008183;28;20038;-63
2021/10/24 00:19:21;;;;;;;14.60;4.75;;;;;;;;;;5006681;28;20117;-63
2021/10/24 00:21:47;;;;;;;11.98;4.55;;;;;;;;;;5010170;28;20033;-63
2021/10/24 00:24:13;;;;;;;16.35;3.85;;;;;;;;;;5020574;28;20093;-63
2021/10/24 00:26:39;;;;;;;10.85;3.95;;;;;;;;;;5019879;28;20090;-63
2021/10/24 00:29:05;;;;;;;16.50;4.28;;;;;;;;;;5019601;28;20076;-63
2021/10/24 00:31:31;;;;;;;11.90;3.80;;;;;;;;;;5017480;28;20448;-63
2021/10/24 00:33:57;;;;;;;24.60;4.57;;;;;;;;;;5015805;28;20403;-63
2021/10/24 00:36:23;;;;;;;10.30;4.20;;;;;;;;;;5013536;28;20091;-63
2021/10/24 00:38:49;;;;;;;15.82;4.40;;;;;;;;;;5012314;28;20393;-63
2021/10/24 00:41:15;;;;;;;13.30;4.78;;;;;;;;;;5009840;28;20038;-63
2021/10/24 00:43:41;;;;;;;13.40;4.47;;;;;;;;;;5006776;28;20084;-63
2021/10/24 00:46:07;;;;;;;13.93;4.97;;;;;;;;;;5006500;28;20037;-63
2021/10/24 00:48:33;;;;;;;14.63;4.72;;;;;;;;;;5003231;28;20034;-63
2021/10/24 00:50:59;;;;;;;8.18;3.97;;;;;;;;;;5003612;28;20034;-63
2021/10/24 00:53:25;;;;;;;9.55;4.40;;;;;;;;;;5002319;28;20497;-63
2021/10/24 00:55:51;;;;;;;11.63;4.93;;;;;;;;;;5000215;28;20121;-63
2021/10/24 00:58:17;;;;;;;11.98;4.38;;;;;;;;;;5001372;28;20121;-63
2021/10/24 01:00:43;;;;;;;12.70;4.22;;;;;;;;;;5005033;28;20030;-63
2021/10/24 01:03:10;;;;;;;13.23;4.03;;;;;;;;;;5006890;28;20022;-63
2021/10/24 01:05:36;;;;;;;11.98;4.53;;;;;;;;;;5006977;28;20034;-63
2021/10/24 01:08:02;;;;;;;10.80;3.70;;;;;;;;;;5011401;28;20052;-63
2021/10/24 01:10:28;;;;;;;8.82;4.60;;;6.30;99.90;;;;;;5008119;28;20025;-63
2021/10/24 01:12:54;;;;;;;16.05;4.40;;;;;;;;;;5007575;28;20048;-63
2021/10/24 01:15:20;;;;;;;11.32;4.20;;;;;;;;;;5005881;28;20034;-63
2021/10/24 01:17:46;;;;;;;11.98;3.80;;;6.40;99.90;;;;;;5002741;28;20026;-63
2021/10/24 01:20:12;;;;;;;16.92;4.80;;;;;;;;;;5001816;28;20041;-63
2021/10/24 01:22:38;;;;;;;17.05;4.10;;;;;;;;;;4998905;28;20038;-63
2021/10/24 01:25:04;;;;;;;9.57;4.18;;;;;;;;;;4998324;28;20034;-63
2021/10/24 01:27:30;;;;;;;11.95;4.00;;;;;;;;;;5002131;28;20038;-63
2021/10/24 01:29:56;;;;;;;12.00;3.95;;;;;;;;;;5002127;28;20112;-63
2021/10/24 01:32:22;;;;;;;10.48;3.90;;;;;;;;;;5002747;28;20030;-63
2021/10/24 01:34:48;;;;;;;10.68;4.05;;;;;;;;;;5005925;28;20037;-63
2021/10/24 01:37:14;;;;;;;17.30;4.30;;;;;;;;;;5005901;28;20705;-63
2021/10/24 01:39:40;;;;;;;11.52;3.65;;;;;;;;;;5009057;28;20069;-63
2021/10/24 01:42:06;;;;;;;13.43;4.00;;;;;;;;;;4992769;28;20044;-63
2021/10/24 01:44:32;;;;;;;9.35;4.13;;;;;;;;;;5011708;28;20037;-63
2021/10/24 01:46:58;;;;;;;12.18;4.05;;;;;;;;;;5013742;28;20415;-63
2021/10/24 01:49:31;;;;;;;9.68;3.53;;;;;;;;;;5000573;28;20034;-63
2021/10/24 01:51:57;;;;;;;9.27;4.15;;;;;;;;;;4999782;28;20614;-63
2021/10/24 01:54:23;;;;;;;8.70;3.85;;;;;;;;;;4998670;28;20097;-63
2021/10/24 01:56:49;;;;;;;9.20;3.75;;;;;;;;;;5000114;28;20090;-63
2021/10/24 01:59:16;;;;;;;11.90;4.03;;;;;;;;;;5001937;28;20528;-63
2021/10/24 02:02:00;;;;;;;11.48;4.15;;;;;;;;;;5012321;28;20524;-64
2021/10/24 02:04:47;;;;;;;16.08;4.43;;;;;;;;;;5005544;28;20417;-63
2021/10/24 02:07:21;;;;;;;9.45;3.90;;;;;;;;;;5007005;28;20033;-63
2021/10/24 02:09:47;;;;;;;7.78;3.30;;;;;;;;;;5006480;28;20037;-63
2021/10/24 02:12:14;;;;;;;12.75;4.38;;;;;;;;;;5004394;28;20112;-63
2021/10/24 02:14:40;;;;;;;11.52;3.63;;;;;;;;;;5014266;28;20113;-63
2021/10/24 02:17:06;;;;;;;15.77;4.07;;;;;;;;;;5015580;28;20025;-63
2021/10/24 02:19:32;;;;;;;16.10;4.00;;;;;;;;;;5017301;28;20030;-63
2021/10/24 02:21:58;;;;;;;10.18;4.07;;;;;;;;;;5020626;28;20045;-63
2021/10/24 02:24:24;;;;;;;11.68;4.72;;;;;;;;;;5018847;28;20026;-63
2021/10/24 02:26:50;;;;;;;12.88;4.07;;;;;;;;;;5017495;28;20040;-63
2021/10/24 02:29:17;;;;;;;10.15;4.53;;;;;;;;;;5000233;28;20033;-63
2021/10/24 02:31:43;;;;;;;12.07;4.07;;;;;;;;;;5014947;28;20053;-64
2021/10/24 02:34:29;;;;;;;13.48;4.40;;;;;;;;;;4999454;28;20042;-63
2021/10/24 02:37:09;;;;;;;17.30;4.35;;;;;;;;;;5009969;28;20088;-63
2021/10/24 02:39:35;;;;;;;13.50;4.57;;;;;;;;;;5011986;28;20049;-63
2021/10/24 02:42:02;;;;;;;19.85;5.85;;;;;;;;;;5012723;28;20038;-63
2021/10/24 02:44:28;;;;;;;15.88;6.13;;;;;;;;;;5014226;28;20044;-63
2021/10/24 02:46:56;;;;;;;15.15;5.00;;;;;;;;;;5015764;28;20489;-63
2021/10/24 02:49:22;;;;;;;12.45;4.95;;;;;;;;;;5017319;28;20512;-63
2021/10/24 02:51:51;;;;;;;11.70;4.90;;;;;;;;;;5013166;28;20036;-63
2021/10/24 02:54:17;;;;;;;17.63;5.72;;;;;;;;;;5001078;28;20058;-63
2021/10/24 02:56:45;;;;;;;13.90;5.45;;;;;;;;;;5003185;28;20045;-63
2021/10/24 02:59:11;;;;;;;11.57;4.93;;;;;;;;;;5005120;28;20038;-63
2021/10/24 03:01:37;;;;;;;13.07;5.03;;;;;;;;;;5007300;28;20068;-63
2021/10/24 03:04:04;;;;;;;16.33;5.43;;;;;;;;;;5009244;28;20030;-63
2021/10/24 03:06:30;;;;;;;14.07;5.60;;;;;;;;;;5011312;28;20029;-63
2021/10/24 03:08:56;;;;;;;14.55;5.22;;;;;;;;;;5011225;28;20040;-63
2021/10/24 03:11:22;;;;;;;12.27;5.50;;;;;;;;;;5013608;28;20167;-63
2021/10/24 03:13:48;;;;;;;19.65;6.50;;;;;;;;;;5014809;28;20026;-65
2021/10/24 03:16:14;;;;;;;17.95;6.40;;;;;;;;;;5003975;28;20786;-64
2021/10/24 03:18:40;;;;;;;13.05;5.63;;;;;;;;;;5000446;28;20034;-63
2021/10/24 03:21:06;;;;;;;13.52;5.20;;;;;;;;;;5001668;28;20034;-63
2021/10/24 03:23:34;;;;;;;21.20;6.18;;;;;;;;;;5001101;28;20128;-63
2021/10/24 03:25:59;;;;;;;20.50;6.22;;;;;;;;;;5001954;28;20601;-63
2021/10/24 03:28:26;;;;;;;16.95;5.95;;;;;;;;;;5006536;28;20853;-63
2021/10/24 03:30:52;;;;;;;19.70;6.50;;;;;;;;;;5013357;28;20040;-63
2021/10/24 03:33:18;;;;;;;21.95;7.25;;;;;;;;;;5011359;28;20029;-63
2021/10/24 03:35:43;;;;;;;22.15;6.68;;;4.90;99.90;;;;;;5010046;28;20065;-63
2021/10/24 03:38:09;;;;;;;14.90;5.65;;;;;;;;;;5007957;28;20132;-63
2021/10/24 03:40:37;;;;;;;20.90;6.75;;;;;;;;;;5007983;28;20033;-64
2021/10/24 03:43:04;;;;;;;17.25;6.35;;;;;;;;;;5004730;28;20133;-63
2021/10/24 03:45:30;;;;;;;18.17;6.18;;;;;;;;;;5003672;28;20405;-63
2021/10/24 03:47:56;;;;;;;13.38;5.65;;;;;;;;;;5001823;28;20037;-63
2021/10/24 03:50:24;;;;;;;15.18;6.18;;;;;;;;;;5000378;28;20172;-63
2021/10/24 03:52:50;;;;;;;20.88;6.32;;;;;;;;;;5001294;28;20485;-63
2021/10/24 03:55:16;;;;;;;16.73;5.07;;;;;;;;;;5002111;28;20030;-63
2021/10/24 03:57:43;;;;;;;18.70;6.75;;;;;;;;;;5003891;28;20061;-63
2021/10/24 04:00:09;;;;;;;16.48;6.20;;;;;;;;;;5006073;28;20498;-63
2021/10/24 04:02:41;;;;;;;13.00;5.53;;;;;;;;;;5008338;28;20102;-63
2021/10/24 04:05:07;;;;;;;18.08;6.15;;;;;;;;;;4992868;28;20064;-63
2021/10/24 04:07:33;;;;;;;11.88;5.85;;;;;;;;;;5009929;28;20071;-63
2021/10/24 04:10:00;;;;;;;12.32;5.47;;;;;;;;;;5011576;28;20033;-63
2021/10/24 04:12:26;;;;;;;12.38;5.57;;;;;;;;;;5007341;28;20026;-63
2021/10/24 04:14:52;;;;;;;14.57;5.43;;;;;;;;;;5003287;28;20116;-63
2021/10/24 04:17:18;;;;;;;17.48;6.22;;;;;;;;;;5000174;28;20053;-63
2021/10/24 04:19:48;;;;;;;11.27;5.28;;;;;;;;;;4998802;28;20033;-63
2021/10/24 04:22:14;;;;;;;13.32;5.03;;;;;;;;;;5001107;28;20061;-63
2021/10/24 04:24:40;;;;;;;22.00;7.85;;;;;;;;;;5001849;28;20331;-63
2021/10/24 04:27:06;;;;;;;25.30;8.68;;;;;;;;;;5002719;28;20045;-63
2021/10/24 04:29:32;;;;;;;32.03;12.38;;;;;;;;;;5005271;28;20132;-63
2021/10/24 04:31:58;;;;;;;26.13;12.13;;;;;;;;;;5005770;28;20060;-63
2021/10/24 04:34:26;;;;;;;26.88;12.43;;;;;;;;;;5008948;28;20033;-63
2021/10/24 04:36:52;;;;;;;17.05;8.07;;;;;;;;;;5008696;28;20044;-63
2021/10/24 04:39:18;;;;;;;20.00;7.30;;;;;;;;;;5011125;28;20025;-63
2021/10/24 04:41:45;;;;;;;13.40;7.32;;;;;;;;;;4996437;28;20037;-63
2021/10/24 04:44:11;;;;;;;14.50;7.07;;;;;;;;;;5015833;28;20037;-63
2021/10/24 04:46:37;;;;;;;18.17;7.53;;;3.50;99.90;;;;;;5015064;28;20026;-63
2021/10/24 04:49:04;;;;;;;18.40;6.38;;;;;;;;;;5007928;28;20076;-63
2021/10/24 04:51:34;;;;;;;20.73;6.95;;;;;;;;;;5014103;28;20030;-63
2021/10/24 04:54:00;;;;;;;18.42;6.30;;;;;;;;;;5000589;28;20042;-63
2021/10/24 04:56:26;;;;;;;11.75;5.88;;;;;;;;;;5016155;28;20686;-63
2021/10/24 04:58:57;;;;;;;19.60;5.60;;;;;;;;;;5003638;28;20099;-63
2021/10/24 05:01:23;;;;;;;14.45;5.90;;;;;;;;;;5005588;28;20025;-63
2021/10/24 05:03:49;;;;;;;10.75;5.30;;;;;;;;;;5006009;28;20037;-63
2021/10/24 05:06:18;;;;;;;17.73;5.78;;;;;;;;;;5006176;28;20034;-63
2021/10/24 05:08:44;;;;;;;11.35;5.10;;;;;;;;;;5002618;28;20065;-63
2021/10/24 05:11:11;;;;;;;16.90;6.13;;;;;;;;;;5003958;28;20041;-63
2021/10/24 05:13:39;;;;;;;16.20;5.32;;;3.20;99.90;;;;;;5001311;28;20025;-63
2021/10/24 05:16:05;;;;;;;17.00;5.47;;;;;;;;;;5003505;28;20045;-63
2021/10/24 05:18:31;;;;;;;15.38;6.00;;;;;;;;;;5006174;28;20033;-63
2021/10/24 05:20:57;;;;;;;12.32;5.72;;;;;;;;;;5015436;28;20026;-63
2021/10/24 05:23:24;;;;;;;12.90;5.47;;;;;;;;;;4989959;28;20084;-63
2021/10/24 05:25:50;;;;;;;11.50;6.20;;;;;;;;;;5010499;28;20116;-63
2021/10/24 05:28:15;;;;;;;15.52;6.75;;;3.30;99.90;;;;;;5006730;28;20397;-63
2021/10/24 05:30:41;;;;;;;20.20;6.45;;;;;;;;;;5005869;28;20042;-63
2021/10/24 05:33:07;;;;;;;18.70;6.78;;;2.80;99.90;;;;;;5010641;28;20512;-63
2021/10/24 05:35:53;;;;;;;14.30;6.88;;;;;;;;;;5008142;28;20912;-63
2021/10/24 05:38:19;;;;;;;17.55;7.35;;;;;;;;;;5002976;28;20076;-63
2021/10/24 05:40:56;;;;;;;20.40;8.07;;;2.80;99.90;;;;;;4990683;28;20406;-63
2021/10/24 05:43:22;;;;;;;22.65;8.70;;;;;;;;;;5000643;28;20029;-63
2021/10/24 05:45:48;;;;;;;25.15;8.32;;;;;;;;;;5008992;28;20034;-63
2021/10/24 05:48:14;;;;;;;29.25;8.80;;;;;;;;;;5005604;28;20025;-63
2021/10/24 05:50:51;;;;;;;20.67;8.25;;;;;;;;;;5005860;28;20651;-63
2021/10/24 05:53:17;;;;;;;26.92;8.82;;;;;;;;;;5007193;28;20106;-63
2021/10/24 05:55:43;;;;;;;19.33;8.90;;;;;;;;;;5012482;28;20798;-65
2021/10/24 05:58:09;;;;;;;23.83;8.70;;;;;;;;;;4995568;28;20084;-72
2021/10/24 06:00:53;;;;;;;25.67;7.90;;;;;;;;;;5009311;28;20034;-65
2021/10/24 06:03:54;;;;;;;24.60;8.52;;;;;;;;;;4993353;28;20236;-62
2021/10/24 06:06:55;;;;;;;27.65;9.45;;;;;;;;;;5008907;28;20052;-63
2021/10/24 06:09:29;;;;;;;20.35;10.13;;;;;;;;;;5010850;28;20050;-63
2021/10/24 06:11:59;;;;;;;29.00;13.77;;;;;;;;;;5008034;28;20040;-63
2021/10/24 06:14:26;;;;;;;32.17;15.43;;;;;;;;;;5001621;28;20149;-63
2021/10/24 06:16:52;;;;;;;32.50;14.13;;;;;;;;;;5006171;28;20039;-63
2021/10/24 06:19:18;;;;;;;25.42;12.70;;;;;;;;;;5017979;28;20040;-63
2021/10/24 06:21:44;;;;;;;26.58;12.05;;;;;;;;;;5008683;28;20132;-63
2021/10/24 06:24:10;;;;;;;24.48;10.10;;;;;;;;;;5014894;28;20777;-63
2021/10/24 06:26:36;;;;;;;21.30;10.43;;;;;;;;;;5011105;28;20033;-73
2021/10/24 06:29:03;;;;;;;18.13;9.80;;;;;;;;;;5005770;28;20037;-73
2021/10/24 06:31:32;;;;;;;19.63;9.70;;;;;;;;;;5009387;28;20192;-72
2021/10/24 06:34:16;;;;;;;20.58;9.80;;;;;;;;;;5010866;28;20138;-73
2021/10/24 06:37:02;;;;;;;23.63;9.15;;;;;;;;;;5014310;28;20041;-63
2021/10/24 06:39:34;;;;;;;23.42;10.13;;;;;;;;;;5003020;28;20237;-63
2021/10/24 06:42:00;;;;;;;22.13;10.13;;;;;;;;;;5007206;28;20034;-63
2021/10/24 06:44:49;;;;;;;28.77;10.40;;;;;;;;;;5006771;28;20045;-63
2021/10/24 06:47:18;;;;;;;29.23;10.27;;;;;;;;;;5009127;28;20706;-63
2021/10/24 06:50:07;;;;;;;25.10;10.73;;;;;;;;;;4988165;28;20132;-63
2021/10/24 06:52:51;;;;;;;29.27;10.80;;;;;;;;;;5011334;28;20063;-63
2021/10/24 06:55:37;;;;;;;27.48;12.00;;;;;;;;;;5011810;28;20042;-63
2021/10/24 06:58:29;;;;;;;26.02;11.70;;;;;;;;;;5000542;28;20068;-63
2021/10/24 07:01:34;;;;;;;21.40;11.30;;;;;;;;;;5013596;28;20060;-63
2021/10/24 07:04:38;;;;;;;29.65;12.00;;;;;;;;;;5013260;28;20037;-63
2021/10/24 07:07:20;;;;;;;22.65;10.57;;;;;;;;;;5018784;28;20041;-63
2021/10/24 07:09:53;;;;;;;26.00;13.38;;;;;;;;;;5009947;28;20718;-63
2021/10/24 07:12:19;;;;;;;26.17;11.23;;;;;;;;;;5012770;28;20025;-63
2021/10/24 07:14:45;;;;;;;25.20;11.20;;;;;;;;;;5011154;28;20115;-65
2021/10/24 07:17:12;;;;;;;22.90;10.60;;;;;;;;;;5020297;28;20026;-65
2021/10/24 07:19:38;;;;;;;19.98;9.80;;;5.10;99.90;;;;;;5010211;28;20029;-63
2021/10/24 07:22:11;;;;;;;19.35;8.27;;;;;;;;;;5010605;28;20529;-65
2021/10/24 07:24:57;;;;;;;19.08;8.68;;;;;;;;;;4999957;28;20064;-63
2021/10/24 07:27:23;;;;;;;19.00;8.15;;;;;;;;;;5006656;28;20029;-63
2021/10/24 07:29:49;;;;;;;15.30;7.32;;;;;;;;;;5013734;28;20037;-63
2021/10/24 07:32:16;;;;;;;15.48;7.90;;;;;;;;;;5010161;28;20109;-63
2021/10/24 07:34:50;;;;;;;16.75;7.25;;;;;;;;;;5007590;28;20079;-63
2021/10/24 07:37:16;;;;;;;19.13;7.63;;;;;;;;;;5008479;28;20116;-63
2021/10/24 07:39:42;;;;;;;14.32;7.40;;;;;;;;;;5013343;28;20041;-63
2021/10/24 07:42:10;;;;;;;16.52;7.30;;;;;;;;;;5018802;28;20397;-63
2021/10/24 07:44:36;;;;;;;16.48;5.97;;;;;;;;;;5012866;28;20030;-63
2021/10/24 07:47:03;;;;;;;14.30;6.32;;;;;;;;;;5007614;28;20026;-63
2021/10/24 07:49:29;;;;;;;10.68;5.60;;;;;;;;;;5005486;28;20026;-63
2021/10/24 07:51:55;;;;;;;22.92;6.88;;;;;;;;;;4987851;28;20058;-64
2021/10/24 07:54:21;;;;;;;14.63;6.25;;;;;;;;;;5014912;28;20065;-63
2021/10/24 07:56:48;;;;;;;13.00;5.68;;;;;;;;;;5013375;28;20037;-63
2021/10/24 07:59:23;;;;;;;12.73;5.90;;;;;;;;;;5013000;28;20041;-63
2021/10/24 08:01:50;;;;;;;15.57;5.90;;;;;;;;;;5011007;28;20734;-63
2021/10/24 08:04:17;;;;;;;18.92;6.70;;;8.30;99.90;;;;;;5009517;28;20088;-63
2021/10/24 08:06:43;;;;;;;13.40;6.25;;;;;;;;;;5009406;28;20038;-63
2021/10/24 08:09:12;;;;;;;19.20;5.55;;;;;;;;;;5005225;28;20595;-63
2021/10/24 08:11:43;;;;;;;16.67;7.32;;;;;;;;;;5002400;28;20117;-63
2021/10/24 08:14:09;;;;;;;19.77;7.43;;;;;;;;;;5000945;28;20034;-63
2021/10/24 08:16:37;;;;;;;14.18;5.63;;;;;;;;;;5003807;28;20030;-64
2021/10/24 08:19:07;;;;;;;14.65;7.28;;;;;;;;;;5009686;28;20501;-63
2021/10/24 08:21:37;;;;;;;14.30;6.05;;;;;;;;;;5015803;28;20033;-63
2021/10/24 08:24:02;;;;;;;24.10;7.35;;;;;;;;;;5008136;28;20104;-63
2021/10/24 08:26:30;;;;;;;25.98;8.98;;;;;;;;;;5008216;28;20037;-64
2021/10/24 08:28:57;;;;;;;23.75;6.65;;;;;;;;;;5009073;28;20478;-64
2021/10/24 08:31:49;;;;;;;9.48;4.72;;;9.10;99.90;;;;;;5009751;28;20037;-64
2021/10/24 08:34:15;;;;;;;13.13;4.82;;;;;;;;;;5006934;28;20029;-63
2021/10/24 08:36:42;;;;;;;11.68;5.03;;;9.30;99.90;;;;;;5004722;28;20433;-63
2021/10/24 08:39:08;;;;;;;15.98;5.00;;;;;;;;;;5010131;28;20478;-62
2021/10/24 08:41:33;;;;;;;16.55;4.95;;;9.00;99.90;;;;;;5008779;28;20036;-63
2021/10/24 08:43:59;;;;;;;10.57;4.90;;;9.50;99.90;;;;;;5016860;28;20041;-64
2021/10/24 08:46:24;;;;;;;14.13;5.93;;;9.80;99.90;;;;;;5009033;28;20104;-64
2021/10/24 08:48:50;;;;;;;13.05;4.45;;;9.70;99.90;;;;;;5003318;28;20065;-64
2021/10/24 08:51:15;;;;;;;9.52;4.28;;;10.20;99.90;;;;;;5009341;28;20064;-64
2021/10/24 08:53:41;;;;;;;6.82;3.58;;;10.30;99.90;;;;;;5009095;28;20033;-63
2021/10/24 08:56:06;;;;;;;14.13;4.60;;;10.60;99.90;;;;;;5010008;28;20052;-64
2021/10/24 08:58:32;;;;;;;8.90;3.85;;;10.30;99.90;;;;;;5007740;28;20038;-64
2021/10/24 09:00:58;;;;;;;14.95;4.20;;;;;;;;;;5007950;28;20072;-64
2021/10/24 09:03:24;;;;;;;8.20;3.67;;;;;;;;;;5007342;28;20034;-63
2021/10/24 09:05:50;;;;;;;6.43;3.55;;;;;;;;;;5011081;28;20030;-63
2021/10/24 09:08:16;;;;;;;11.85;3.92;;;;;;;;;;5003430;28;20040;-63
2021/10/24 09:10:42;;;;;;;8.25;3.60;;;10.20;99.90;;;;;;5000672;28;20142;-63
2021/10/24 09:13:08;;;;;;;9.50;3.75;;;;;;;;;;5005032;28;20030;-64
2021/10/24 09:15:33;;;;;;;11.63;3.40;;;9.90;99.90;;;;;;5011388;28;20209;-63
2021/10/24 09:17:59;;;;;;;10.88;3.83;;;;;;;;;;5007773;28;20169;-63
2021/10/24 09:20:25;;;;;;;13.65;3.95;;;;;;;;;;5007203;28;20037;-64
2021/10/24 09:22:51;;;;;;;10.70;3.08;;;;;;;;;;5008574;28;20029;-63
2021/10/24 09:25:17;;;;;;;12.57;3.30;;;;;;;;;;5013643;28;20324;-63
2021/10/24 09:27:43;;;;;;;9.07;3.30;;;;;;;;;;5009605;28;20137;-64
2021/10/24 09:30:09;;;;;;;8.65;2.88;;;;;;;;;;5007954;28;20181;-63
2021/10/24 09:32:35;;;;;;;10.25;3.03;;;;;;;;;;5006781;28;20041;-63
2021/10/24 09:35:02;;;;;;;11.68;3.22;;;;;;;;;;5006839;28;20026;-63
2021/10/24 09:37:57;;;;;;;10.93;3.17;;;;;;;;;;5005202;28;20774;-62
2021/10/24 09:40:47;;;;;;;9.30;2.40;;;;;;;;;;5000122;28;20448;-62
2021/10/24 09:43:13;;;;;;;9.40;2.85;;;;;;;;;;5014304;28;20038;-62
2021/10/24 09:45:39;;;;;;;9.38;3.08;;;11.20;99.90;;;;;;5007781;28;20092;-62
2021/10/24 09:48:05;;;;;;;12.02;2.42;;;;;;;;;;5009627;28;20041;-62
2021/10/24 09:50:32;;;;;;;8.82;2.78;;;;;;;;;;5005991;28;20124;-61
2021/10/24 09:52:58;;;;;;;8.13;2.78;;;;;;;;;;5008369;28;20037;-62
2021/10/24 09:55:24;;;;;;;9.90;2.85;;;;;;;;;;5007213;28;20737;-62
2021/10/24 09:57:50;;;;;;;11.13;2.97;;;;;;;;;;5008413;28;20961;-62
2021/10/24 10:00:16;;;;;;;9.77;2.95;;;;;;;;;;5007237;28;20504;-62
2021/10/24 10:02:42;;;;;;;7.97;3.13;;;;;;;;;;5005745;28;20398;-62
2021/10/24 10:05:08;;;;;;;7.97;2.70;;;;;;;;;;5013476;28;20034;-61
2021/10/24 10:07:34;;;;;;;8.65;2.15;;;;;;;;;;5006909;28;20109;-61
2021/10/24 10:10:00;;;;;;;11.38;2.90;;;;;;;;;;5000391;28;20144;-61
2021/10/24 10:12:26;;;;;;;10.15;2.78;;;;;;;;;;5006436;28;20036;-62
2021/10/24 10:14:52;;;;;;;13.65;2.70;;;;;;;;;;5007522;28;20069;-63
2021/10/24 10:17:19;;;;;;;16.98;2.65;;;;;;;;;;5006197;28;20160;-62
2021/10/24 10:19:47;;;;;;;8.85;2.17;;;;;;;;;;4987815;28;20084;-62
2021/10/24 10:22:14;;;;;;;6.30;2.17;;;;;;;;;;5008131;28;20732;-62
2021/10/24 10:24:40;;;;;;;11.23;2.20;;;;;;;;;;5010990;28;20486;-62
2021/10/24 10:27:06;;;;;;;6.03;1.98;;;;;;;;;;5005837;28;20030;-62
2021/10/24 10:29:32;;;;;;;6.15;1.50;;;;;;;;;;5006038;28;20129;-62
2021/10/24 10:31:58;;;;;;;8.63;2.22;;;;;;;;;;5010145;28;20040;-62
2021/10/24 10:34:24;;;;;;;8.32;3.03;;;;;;;;;;5011239;28;20053;-62
2021/10/24 10:36:50;;;;;;;15.73;2.25;;;;;;;;;;5013499;28;20117;-64
2021/10/24 10:39:16;;;;;;;6.00;2.45;;;;;;;;;;5001232;28;20088;-62
2021/10/24 10:41:43;;;;;;;7.30;2.17;;;;;;;;;;5002287;28;20038;-61
2021/10/24 10:44:09;;;;;;;6.53;2.33;;;;;;;;;;5008244;28;20046;-62
2021/10/24 10:46:35;;;;;;;10.95;2.83;;;;;;;;;;5008756;28;20056;-62
2021/10/24 10:49:01;;;;;;;5.28;1.95;;;;;;;;;;5010377;28;20033;-62
2021/10/24 10:51:29;;;;;;;8.65;2.53;;;;;;;;;;5011440;28;20476;-62
2021/10/24 10:53:55;;;;;;;5.30;1.70;;;;;;;;;;5014261;28;20572;-62
2021/10/24 10:56:22;;;;;;;7.43;2.10;;;;;;;;;;5010926;28;20041;-62
2021/10/24 10:58:48;;;;;;;7.80;2.30;;;;;;;;;;5008557;28;20040;-62
2021/10/24 11:01:14;;;;;;;5.38;1.25;;;;;;;;;;5011460;28;20169;-62
2021/10/24 11:03:40;;;;;;;6.18;1.80;;;;;;;;;;5009099;28;20121;-61
2021/10/24 11:06:06;;;;;;;8.75;1.50;;;;;;;;;;5019795;28;20038;-62
2021/10/24 11:08:32;;;;;;;5.90;1.70;;;;;;;;;;5022020;28;20304;-62
2021/10/24 11:10:57;;;;;;;4.15;1.23;;;;;;;;;;5006320;28;20926;-62
2021/10/24 11:13:23;;;;;;;7.78;1.40;;;;;;;;;;5016394;28;20506;-63
2021/10/24 11:15:49;;;;;;;4.85;1.20;;;;;;;;;;5013861;28;20702;-63
2021/10/24 11:18:15;;;;;;;4.78;1.20;;;;;;;;;;5015537;28;20665;-66
2021/10/24 11:20:41;;;;;;;6.13;1.30;;;;;;;;;;5013780;28;20101;-63
2021/10/24 11:23:07;;;;;;;4.82;1.20;;;;;;;;;;5011286;28;20069;-63
2021/10/24 11:25:33;;;;;;;6.95;1.15;;;;;;;;;;5010086;28;20034;-63
2021/10/24 11:27:59;;;;;;;5.72;1.10;;;;;;;;;;5006827;28;20045;-62
2021/10/24 11:30:25;;;;;;;5.93;1.17;;;;;;;;;;5006383;28;20041;-62
2021/10/24 11:32:51;;;;;;;6.75;1.20;;;;;;;;;;5012790;28;20507;-62
2021/10/24 11:35:17;;;;;;;6.75;1.15;;;;;;;;;;5007617;28;20037;-63
2021/10/24 11:37:45;;;;;;;4.30;1.20;;;;;;;;;;5005286;28;20034;-63
2021/10/24 11:40:13;;;;;;;5.80;1.40;;;;;;;;;;5008336;28;20034;-62
2021/10/24 11:42:39;;;;;;;3.08;1.10;;;;;;;;;;5003200;28;20037;-63
2021/10/24 11:45:05;;;;;;;5.88;1.10;;;;;;;;;;5006863;28;20037;-62
2021/10/24 11:47:31;;;;;;;3.50;0.88;;;;;;;;;;5010602;28;20068;-62
2021/10/24 11:49:57;;;;;;;4.20;1.35;;;;;;;;;;5011313;28;20132;-63
2021/10/24 11:52:23;;;;;;;9.80;2.80;;;;;;;;;;5013327;28;20029;-63
2021/10/24 11:54:49;;;;;;;5.07;1.30;;;;;;;;;;5013449;28;20040;-62
2021/10/24 12:00:39;;;;;;;5.03;1.23;;;;;;;;;;5004584;28;20099;-63
2021/10/24 12:03:05;;;;;;;3.72;1.27;;;;;;;;;;5010455;28;20032;-62
2021/10/24 12:05:31;;;;;;;5.20;1.77;;;;;;;;;;5019241;28;20033;-62
2021/10/24 12:07:57;;;;;;;7.15;1.42;;;;;;;;;;5005049;28;20036;-62
2021/10/24 12:10:23;;;;;;;6.28;1.35;;;;;;;;;;5003469;28;20038;-62
2021/10/24 12:12:49;;;;;;;8.52;1.40;;;;;;;;;;5007477;28;20036;-63
2021/10/24 12:15:15;;;;;;;3.80;1.13;;;;;;;;;;5006385;28;20034;-63
2021/10/24 12:17:41;;;;;;;7.15;2.40;;;;;;;;;;5011930;28;20454;-63
2021/10/24 12:20:07;;;;;;;7.57;1.50;;;;;;;;;;5012838;28;20030;-63
2021/10/24 12:22:33;;;;;;;11.38;2.35;;;;;;;;;;5013021;28;20034;-63
2021/10/24 12:24:59;;;;;;;3.75;1.10;;;;;;;;;;5010817;28;20107;-63
2021/10/24 12:27:32;;;;;;;5.88;1.30;;;;;;;;;;5010084;28;20080;-63
2021/10/24 12:29:58;;;;;;;6.03;1.50;;;13.30;96.10;;;;;;5007398;28;20680;-63
2021/10/24 12:32:24;;;;;;;4.60;1.38;;;;;;;;;;5006287;28;20040;-63
2021/10/24 12:34:50;;;;;;;3.30;0.95;;;;;;;;;;5008917;28;20030;-64
2021/10/24 12:37:16;;;;;;;6.18;1.33;;;;;;;;;;5001865;28;20105;-63
2021/10/24 12:39:42;;;;;;;5.05;1.10;;;;;;;;;;5003251;28;20522;-63
2021/10/24 12:42:08;;;;;;;4.00;1.10;;;;;;;;;;5004128;28;20137;-63
2021/10/24 12:44:35;;;;;;;6.13;1.20;;;;;;;;;;5005488;28;20120;-63
2021/10/24 12:47:03;;;;;;;7.03;1.20;;;;;;;;;;5009996;28;20041;-63
2021/10/24 12:49:30;;;;;;;8.02;1.45;;;;;;;;;;5013219;28;20037;-63
2021/10/24 12:51:56;;;;;;;5.13;1.20;;;;;;;;;;5009278;28;20061;-63
2021/10/24 12:54:21;;;;;;;6.40;1.10;;;;;;;;;;5010723;28;20532;-63
2021/10/24 12:56:47;;;;;;;5.15;1.10;;;;;;;;;;5008720;28;20044;-63
2021/10/24 12:59:13;;;;;;;4.50;1.25;;;13.90;99.90;;;;;;5010781;28;20041;-63
2021/10/24 13:01:39;;;;;;;4.50;1.40;;;;;;;;;;5018268;28;20144;-63
2021/10/24 13:04:05;;;;;;;4.10;1.23;;;;;;;;;;5018198;28;20045;-63
2021/10/24 13:06:31;;;;;;;4.70;1.08;;;;;;;;;;5015452;28;20045;-63
2021/10/24 13:08:57;;;;;;;5.35;2.05;;;14.20;99.50;;;;;;5010132;28;20038;-63
2021/10/24 13:11:23;;;;;;;3.38;1.10;;;;;;;;;;5003533;28;20041;-63
2021/10/24 13:13:49;;;;;;;13.43;1.67;;;;;;;;;;5005855;28;20183;-63
2021/10/24 13:16:15;;;;;;;5.10;1.50;;;;;;;;;;5006419;28;20145;-63
2021/10/24 13:18:41;;;;;;;2.75;1.20;;;;;;;;;;5011787;28;20572;-63
2021/10/24 13:21:10;;;;;;;4.85;1.40;;;;;;;;;;5010913;28;20490;-63
2021/10/24 13:23:36;;;;;;;4.93;1.08;;;;;;;;;;5008403;28;20041;-63
2021/10/24 13:26:02;;;;;;;4.18;0.98;;;;;;;;;;5011923;28;20029;-63
2021/10/24 13:28:29;;;;;;;4.40;1.08;;;;;;;;;;5010651;28;20045;-63
2021/10/24 13:30:55;;;;;;;3.05;1.00;;;;;;;;;;5002926;28;20038;-63
2021/10/24 13:33:21;;;;;;;1.90;0.90;;;;;;;;;;5001305;28;20038;-63
2021/10/24 13:35:47;;;;;;;3.30;1.00;;;;;;;;;;4999927;28;20076;-63
2021/10/24 13:38:13;;;;;;;2.58;1.13;;;;;;;;;;4999655;28;20569;-63
2021/10/24 13:40:39;;;;;;;7.13;1.13;;;;;;;;;;5005319;28;20040;-63
2021/10/24 13:43:05;;;;;;;5.20;0.95;;;;;;;;;;5009623;28;20038;-63
2021/10/24 13:45:31;;;;;;;2.67;1.00;;;;;;;;;;5008339;28;20044;-63
2021/10/24 13:47:58;;;;;;;5.13;1.20;;;;;;;;;;5006225;28;20413;-63
2021/10/24 13:50:24;;;;;;;10.27;1.27;;;;;;;;;;5008104;28;20128;-63
2021/10/24 13:52:50;;;;;;;4.32;0.90;;;;;;;;;;5010165;28;20120;-63
2021/10/24 13:55:16;;;;;;;4.15;1.42;;;;;;;;;;5012338;28;20068;-63
2021/10/24 13:57:42;;;;;;;3.83;1.27;;;;;;;;;;5012504;28;20030;-63
2021/10/24 14:00:08;;;;;;;4.72;0.95;;;;;;;;;;5015272;28;20413;-63
2021/10/24 14:02:37;;;;;;;4.05;1.90;;;;;;;;;;5014511;28;20641;-63
2021/10/24 14:05:03;;;;;;;3.97;1.10;;;;;;;;;;5007914;28;20125;-64
2021/10/24 14:07:29;;;;;;;3.85;1.55;;;;;;;;;;5003444;28;20048;-63
2021/10/24 14:09:55;;;;;;;3.15;1.65;;;;;;;;;;5011662;28;20520;-63
2021/10/24 14:12:21;;;;;;;9.00;1.40;;;;;;;;;;5011174;28;20029;-63
2021/10/24 14:14:47;;;;;;;2.33;0.90;;;;;;;;;;5009055;28;20034;-63
2021/10/24 14:17:13;;;;;;;5.22;1.35;;;;;;;;;;5014877;28;20069;-63
2021/10/24 14:19:39;;;;;;;4.90;1.30;;;;;;;;;;5012873;28;20074;-63
2021/10/24 14:22:05;;;;;;;10.95;3.20;;;;;;;;;;5010742;28;20038;-62
2021/10/24 14:24:31;;;;;;;4.90;1.73;;;;;;;;;;5010094;28;20033;-62
2021/10/24 14:26:57;;;;;;;6.05;2.10;;;;;;;;;;5009230;28;20137;-63
2021/10/24 14:29:26;;;;;;;8.80;3.00;;;;;;;;;;5018255;28;20055;-63
2021/10/24 14:31:52;;;;;;;4.28;1.30;;;;;;;;;;5008037;28;20030;-63